sensor_id;sensor_type;location;lat;lon;timestamp;pressure;altitude;pressure_sealevel;temperature;humidity
6851;BME280;3464;42.728;23.296;2023-09-08T04:37:45;95698.78;;;29.89;41.89
6851;BME280;3464;42.728;23.296;2023-09-08T04:43:54;95701.95;;;31.88;39.72
6851;BME280;3464;42.728;23.296;2023-09-08T05:25:21;95705.33;;;39.86;28.23
6851;BME280;3464;42.728;23.296;2023-09-08T05:28:01;95699.50;;;40.13;28.75
6851;BME280;3464;42.728;23.296;2023-09-08T05:33:39;95695.03;;;41.83;26.75
6851;BME280;3464;42.728;23.296;2023-09-08T05:36:16;95707.12;;;39.47;28.67
6851;BME280;3464;42.728;23.296;2023-09-08T05:38:46;95702.42;;;39.32;29.18
6851;BME280;3464;42.728;23.296;2023-09-08T05:44:36;95709.44;;;42.76;25.76
6851;BME280;3464;42.728;23.296;2023-09-08T05:47:11;95703.22;;;42.14;25.91
6851;BME280;3464;42.728;23.296;2023-09-08T05:49:57;95706.52;;;40.97;27.11
6851;BME280;3464;42.728;23.296;2023-09-08T05:52:28;95707.91;;;42.81;25.57
6851;BME280;3464;42.728;23.296;2023-09-08T05:55:04;95712.05;;;40.41;27.08
6851;BME280;3464;42.728;23.296;2023-09-08T05:57:34;95708.41;;;40.12;27.69
6851;BME280;3464;42.728;23.296;2023-09-08T06:02:51;95710.30;;;40.02;27.63
6851;BME280;3464;42.728;23.296;2023-09-08T06:18:28;95714.44;;;41.87;25.57
6851;BME280;3464;42.728;23.296;2023-09-08T06:21:11;95721.98;;;38.48;28.67
6851;BME280;3464;42.728;23.296;2023-09-08T06:23:49;95718.91;;;39.17;28.22
6851;BME280;3464;42.728;23.296;2023-09-08T06:29:57;95726.38;;;39.61;26.31
6851;BME280;3464;42.728;23.296;2023-09-08T06:36:22;95732.03;;;37.02;28.36
6851;BME280;3464;42.728;23.296;2023-09-08T06:39:06;95731.22;;;38.25;27.92
6851;BME280;3464;42.728;23.296;2023-09-08T06:41:44;95733.03;;;39.43;26.58
6851;BME280;3464;42.728;23.296;2023-09-08T06:44:26;95732.28;;;40.28;26.18
6851;BME280;3464;42.728;23.296;2023-09-08T06:47:01;95733.80;;;40.13;25.96
6851;BME280;3464;42.728;23.296;2023-09-08T06:55:19;95728.75;;;40.79;25.53
6851;BME280;3464;42.728;23.296;2023-09-08T06:57:55;95734.73;;;37.59;28.00
6851;BME280;3464;42.728;23.296;2023-09-08T07:00:27;95740.61;;;36.34;29.24
6851;BME280;3464;42.728;23.296;2023-09-08T07:03:06;95732.05;;;36.87;29.16
6851;BME280;3464;42.728;23.296;2023-09-08T07:05:41;95735.80;;;36.59;29.37
6851;BME280;3464;42.728;23.296;2023-09-08T07:08:11;95734.33;;;37.54;27.91
6851;BME280;3464;42.728;23.296;2023-09-08T07:10:37;95741.73;;;35.43;29.75
6851;BME280;3464;42.728;23.296;2023-09-08T07:13:11;95742.69;;;36.05;29.68
6851;BME280;3464;42.728;23.296;2023-09-08T07:15:46;95732.16;;;35.59;29.96
6851;BME280;3464;42.728;23.296;2023-09-08T07:18:14;95738.54;;;34.86;31.25
6851;BME280;3464;42.728;23.296;2023-09-08T07:20:41;95745.73;;;34.78;31.25
6851;BME280;3464;42.728;23.296;2023-09-08T07:23:09;95733.17;;;33.18;33.12
6851;BME280;3464;42.728;23.296;2023-09-08T07:25:38;95730.97;;;33.24;33.62
6851;BME280;3464;42.728;23.296;2023-09-08T07:28:06;95731.89;;;32.32;34.36
6851;BME280;3464;42.728;23.296;2023-09-08T07:30:33;95729.02;;;33.03;33.54
6851;BME280;3464;42.728;23.296;2023-09-08T07:32:59;95730.47;;;35.53;30.51
6851;BME280;3464;42.728;23.296;2023-09-08T07:35:26;95733.50;;;33.66;32.63
6851;BME280;3464;42.728;23.296;2023-09-08T07:37:54;95727.86;;;35.10;31.30
6851;BME280;3464;42.728;23.296;2023-09-08T07:40:23;95727.75;;;36.31;29.82
6851;BME280;3464;42.728;23.296;2023-09-08T07:42:51;95726.86;;;35.01;30.84
6851;BME280;3464;42.728;23.296;2023-09-08T07:45:23;95729.00;;;35.34;30.79
6851;BME280;3464;42.728;23.296;2023-09-08T07:50:33;95716.83;;;36.91;29.15
6851;BME280;3464;42.728;23.296;2023-09-08T07:53:03;95713.95;;;35.20;29.20
6851;BME280;3464;42.728;23.296;2023-09-08T10:07:00;95671.96;;;35.58;28.08
6851;BME280;3464;42.728;23.296;2023-09-08T10:15:57;95675.73;;;34.21;29.37
6851;BME280;3464;42.728;23.296;2023-09-08T11:20:52;95628.51;;;34.17;29.78
6851;BME280;3464;42.728;23.296;2023-09-08T11:29:17;95633.74;;;34.39;29.78
6851;BME280;3464;42.728;23.296;2023-09-08T11:51:23;95597.33;;;34.59;29.89
6851;BME280;3464;42.728;23.296;2023-09-08T11:57:09;95583.94;;;34.52;30.08
6851;BME280;3464;42.728;23.296;2023-09-08T11:59:48;95581.16;;;37.39;27.33
6851;BME280;3464;42.728;23.296;2023-09-08T12:05:44;95597.76;;;35.22;28.68
6851;BME280;3464;42.728;23.296;2023-09-08T12:08:24;95578.38;;;35.60;28.05
6851;BME280;3464;42.728;23.296;2023-09-08T12:10:49;95590.78;;;35.37;28.62
6851;BME280;3464;42.728;23.296;2023-09-08T12:13:24;95577.66;;;35.94;28.01
6851;BME280;3464;42.728;23.296;2023-09-08T12:15:52;95579.22;;;35.19;28.61
6851;BME280;3464;42.728;23.296;2023-09-08T12:21:53;95574.23;;;35.68;27.90
6851;BME280;3464;42.728;23.296;2023-09-08T12:24:04;95566.62;;;34.56;29.49
6851;BME280;3464;42.728;23.296;2023-09-08T12:26:32;95598.81;;;34.24;29.85
6851;BME280;3464;42.728;23.296;2023-09-08T12:28:59;95584.28;;;33.99;30.31
6851;BME280;3464;42.728;23.296;2023-09-08T12:31:26;95576.44;;;34.04;29.91
6851;BME280;3464;42.728;23.296;2023-09-08T12:33:53;95574.64;;;33.04;30.98
6851;BME280;3464;42.728;23.296;2023-09-08T12:36:20;95570.89;;;33.53;30.92
6851;BME280;3464;42.728;23.296;2023-09-08T12:38:51;95559.08;;;33.70;30.50
6851;BME280;3464;42.728;23.296;2023-09-08T12:41:20;95563.93;;;34.30;29.76
6851;BME280;3464;42.728;23.296;2023-09-08T12:50:26;95553.97;;;35.34;28.67
6851;BME280;3464;42.728;23.296;2023-09-08T12:52:52;95559.89;;;35.15;28.85
6851;BME280;3464;42.728;23.296;2023-09-08T12:55:19;95563.84;;;33.60;30.37
6851;BME280;3464;42.728;23.296;2023-09-08T12:57:47;95551.71;;;34.19;30.02
6851;BME280;3464;42.728;23.296;2023-09-08T13:00:16;95557.73;;;33.09;31.11
6851;BME280;3464;42.728;23.296;2023-09-08T13:02:43;95561.44;;;33.51;30.70
6851;BME280;3464;42.728;23.296;2023-09-08T13:05:09;95561.42;;;33.17;30.96
6851;BME280;3464;42.728;23.296;2023-09-08T13:07:36;95555.84;;;35.17;29.04
6851;BME280;3464;42.728;23.296;2023-09-08T13:10:03;95566.63;;;35.65;27.91
6851;BME280;3464;42.728;23.296;2023-09-08T13:15:49;95544.94;;;34.86;28.87
6851;BME280;3464;42.728;23.296;2023-09-08T13:18:18;95559.24;;;34.61;28.97
6851;BME280;3464;42.728;23.296;2023-09-08T13:30:39;95542.37;;;35.01;28.90
6851;BME280;3464;42.728;23.296;2023-09-08T13:39:43;95546.74;;;35.58;28.03
6851;BME280;3464;42.728;23.296;2023-09-08T13:42:23;95547.42;;;33.91;29.41
6851;BME280;3464;42.728;23.296;2023-09-08T13:45:12;95548.27;;;34.83;28.80
6851;BME280;3464;42.728;23.296;2023-09-08T13:51:04;95550.84;;;37.03;26.10
6851;BME280;3464;42.728;23.296;2023-09-08T14:00:24;95546.50;;;34.93;28.48
6851;BME280;3464;42.728;23.296;2023-09-08T14:02:52;95545.30;;;34.18;29.99
6851;BME280;3464;42.728;23.296;2023-09-08T14:05:30;95555.48;;;34.96;29.44
6851;BME280;3464;42.728;23.296;2023-09-08T14:11:03;95548.66;;;35.25;29.24
6851;BME280;3464;42.728;23.296;2023-09-08T14:13:38;95549.13;;;35.14;29.01
6851;BME280;3464;42.728;23.296;2023-09-08T14:16:06;95556.13;;;34.08;30.38
6851;BME280;3464;42.728;23.296;2023-09-08T14:18:33;95552.18;;;34.19;30.21
6851;BME280;3464;42.728;23.296;2023-09-08T14:21:01;95552.48;;;33.82;30.62
6851;BME280;3464;42.728;23.296;2023-09-08T14:23:28;95546.14;;;33.18;31.27
6851;BME280;3464;42.728;23.296;2023-09-08T14:25:54;95548.75;;;33.63;30.58
6851;BME280;3464;42.728;23.296;2023-09-08T14:28:22;95550.01;;;33.36;30.95
6851;BME280;3464;42.728;23.296;2023-09-08T14:30:49;95542.39;;;33.77;30.81
6851;BME280;3464;42.728;23.296;2023-09-08T14:33:15;95544.14;;;35.06;29.32
6851;BME280;3464;42.728;23.296;2023-09-08T14:35:42;95552.29;;;32.89;31.53
6851;BME280;3464;42.728;23.296;2023-09-08T14:38:09;95547.72;;;32.63;31.80
6851;BME280;3464;42.728;23.296;2023-09-08T14:40:36;95542.75;;;33.45;30.80
6851;BME280;3464;42.728;23.296;2023-09-08T14:43:04;95553.53;;;32.42;31.85
6851;BME280;3464;42.728;23.296;2023-09-08T14:45:31;95542.87;;;33.38;30.58
6851;BME280;3464;42.728;23.296;2023-09-08T14:47:58;95543.20;;;32.35;31.56
6851;BME280;3464;42.728;23.296;2023-09-08T14:50:24;95538.07;;;31.92;32.52
6851;BME280;3464;42.728;23.296;2023-09-08T14:52:51;95542.70;;;32.83;31.71
6851;BME280;3464;42.728;23.296;2023-09-08T14:55:18;95534.70;;;33.02;31.71
6851;BME280;3464;42.728;23.296;2023-09-08T14:57:46;95547.23;;;32.51;32.40
6851;BME280;3464;42.728;23.296;2023-09-08T15:00:13;95534.72;;;32.79;31.91
6851;BME280;3464;42.728;23.296;2023-09-08T15:02:40;95541.23;;;33.59;30.94
6851;BME280;3464;42.728;23.296;2023-09-08T15:05:07;95542.66;;;32.78;31.96
6851;BME280;3464;42.728;23.296;2023-09-08T15:07:34;95549.84;;;33.55;30.90
6851;BME280;3464;42.728;23.296;2023-09-08T15:10:00;95532.86;;;33.61;30.97
6851;BME280;3464;42.728;23.296;2023-09-08T15:12:27;95529.53;;;34.88;29.39
6851;BME280;3464;42.728;23.296;2023-09-08T15:14:54;95539.58;;;34.40;29.77
6851;BME280;3464;42.728;23.296;2023-09-08T15:17:20;95528.70;;;34.08;30.10
6851;BME280;3464;42.728;23.296;2023-09-08T15:19:47;95545.03;;;33.32;30.79
6851;BME280;3464;42.728;23.296;2023-09-08T15:22:13;95538.50;;;33.61;30.46
6851;BME280;3464;42.728;23.296;2023-09-08T15:24:40;95540.76;;;33.98;30.23
6851;BME280;3464;42.728;23.296;2023-09-08T15:27:06;95532.40;;;33.33;31.15
6851;BME280;3464;42.728;23.296;2023-09-08T15:29:33;95538.23;;;33.02;31.44
6851;BME280;3464;42.728;23.296;2023-09-08T15:31:59;95538.55;;;33.21;31.27
6851;BME280;3464;42.728;23.296;2023-09-08T15:34:26;95537.31;;;33.31;31.21
6851;BME280;3464;42.728;23.296;2023-09-08T15:36:52;95531.34;;;32.72;32.04
6851;BME280;3464;42.728;23.296;2023-09-08T15:39:19;95532.91;;;33.76;30.70
6851;BME280;3464;42.728;23.296;2023-09-08T15:41:46;95530.78;;;32.15;32.58
6851;BME280;3464;42.728;23.296;2023-09-08T15:44:13;95537.39;;;32.19;32.15
6851;BME280;3464;42.728;23.296;2023-09-08T15:46:40;95530.76;;;33.14;31.30
6851;BME280;3464;42.728;23.296;2023-09-08T15:49:06;95526.51;;;33.47;31.35
6851;BME280;3464;42.728;23.296;2023-09-08T15:51:33;95539.56;;;32.67;31.98
6851;BME280;3464;42.728;23.296;2023-09-08T15:53:59;95533.30;;;31.86;32.74
6851;BME280;3464;42.728;23.296;2023-09-08T15:56:26;95533.02;;;32.38;32.52
6851;BME280;3464;42.728;23.296;2023-09-08T15:58:54;95531.67;;;32.97;31.69
6851;BME280;3464;42.728;23.296;2023-09-08T16:01:23;95530.12;;;32.94;31.74
6851;BME280;3464;42.728;23.296;2023-09-08T16:03:50;95530.87;;;32.26;32.42
6851;BME280;3464;42.728;23.296;2023-09-08T16:09:35;95532.09;;;32.97;31.76
6851;BME280;3464;42.728;23.296;2023-09-08T16:12:04;95529.60;;;33.35;31.32
6851;BME280;3464;42.728;23.296;2023-09-08T16:14:31;95526.37;;;33.38;31.27
6851;BME280;3464;42.728;23.296;2023-09-08T16:16:58;95527.99;;;33.17;31.40
6851;BME280;3464;42.728;23.296;2023-09-08T16:22:23;95530.22;;;33.10;31.29
6851;BME280;3464;42.728;23.296;2023-09-08T16:24:50;95529.14;;;32.66;32.11
6851;BME280;3464;42.728;23.296;2023-09-08T16:30:41;95518.75;;;32.66;32.12
6851;BME280;3464;42.728;23.296;2023-09-08T16:33:10;95521.50;;;32.23;32.67
6851;BME280;3464;42.728;23.296;2023-09-08T16:42:36;95530.83;;;33.14;31.80
6851;BME280;3464;42.728;23.296;2023-09-08T16:45:08;95526.77;;;32.16;33.09
6851;BME280;3464;42.728;23.296;2023-09-08T16:47:37;95523.80;;;32.03;33.35
6851;BME280;3464;42.728;23.296;2023-09-08T16:50:06;95526.68;;;32.47;32.69
6851;BME280;3464;42.728;23.296;2023-09-08T16:52:32;95523.05;;;32.55;32.73
6851;BME280;3464;42.728;23.296;2023-09-08T16:54:59;95530.48;;;31.34;34.10
6851;BME280;3464;42.728;23.296;2023-09-08T16:57:29;95526.95;;;31.90;33.67
6851;BME280;3464;42.728;23.296;2023-09-08T16:59:58;95530.02;;;32.38;33.21
6851;BME280;3464;42.728;23.296;2023-09-08T17:02:36;95526.70;;;31.56;33.87
6851;BME280;3464;42.728;23.296;2023-09-08T17:05:11;95533.66;;;31.81;33.83
6851;BME280;3464;42.728;23.296;2023-09-08T17:07:39;95536.41;;;31.22;34.33
6851;BME280;3464;42.728;23.296;2023-09-08T17:10:09;95541.85;;;31.57;33.75
6851;BME280;3464;42.728;23.296;2023-09-08T17:15:44;95550.47;;;31.70;33.90
6851;BME280;3464;42.728;23.296;2023-09-08T17:18:17;95551.22;;;31.34;34.31
6851;BME280;3464;42.728;23.296;2023-09-08T17:24:02;95559.84;;;32.09;33.23
6851;BME280;3464;42.728;23.296;2023-09-08T17:26:28;95553.03;;;31.83;33.96
6851;BME280;3464;42.728;23.296;2023-09-08T17:28:57;95565.05;;;31.41;34.37
6851;BME280;3464;42.728;23.296;2023-09-08T17:31:23;95563.81;;;31.02;35.22
6851;BME280;3464;42.728;23.296;2023-09-08T17:33:50;95553.28;;;31.67;34.65
6851;BME280;3464;42.728;23.296;2023-09-08T17:46:08;95567.19;;;30.91;36.83
6851;BME280;3464;42.728;23.296;2023-09-08T17:48:39;95572.05;;;31.21;36.59
6851;BME280;3464;42.728;23.296;2023-09-08T17:51:08;95579.72;;;30.71;37.40
6851;BME280;3464;42.728;23.296;2023-09-08T17:53:52;95573.93;;;30.81;37.63
6851;BME280;3464;42.728;23.296;2023-09-08T17:59:22;95575.69;;;31.32;36.96
6851;BME280;3464;42.728;23.296;2023-09-08T18:01:53;95570.11;;;31.37;36.84
6851;BME280;3464;42.728;23.296;2023-09-08T18:04:39;95568.58;;;32.26;35.48
6851;BME280;3464;42.728;23.296;2023-09-08T18:07:09;95577.91;;;31.56;36.59
6851;BME280;3464;42.728;23.296;2023-09-08T18:09:39;95584.78;;;31.12;37.35
6851;BME280;3464;42.728;23.296;2023-09-08T18:25:04;95589.43;;;31.27;37.37
6851;BME280;3464;42.728;23.296;2023-09-08T18:27:34;95595.77;;;31.17;37.55
6851;BME280;3464;42.728;23.296;2023-09-08T18:30:00;95591.19;;;31.01;37.76
6851;BME280;3464;42.728;23.296;2023-09-08T18:32:32;95594.64;;;31.53;37.14
6851;BME280;3464;42.728;23.296;2023-09-08T18:47:46;95592.80;;;31.41;37.40
6851;BME280;3464;42.728;23.296;2023-09-08T19:39:29;95591.48;;;32.46;35.40
6851;BME280;3464;42.728;23.296;2023-09-08T19:48:42;95600.80;;;32.25;35.48
6851;BME280;3464;42.728;23.296;2023-09-08T19:51:16;95600.89;;;31.44;36.43
6851;BME280;3464;42.728;23.296;2023-09-08T20:10:15;95614.33;;;30.52;37.91
6851;BME280;3464;42.728;23.296;2023-09-08T20:16:17;95627.75;;;30.32;38.39
6851;BME280;3464;42.728;23.296;2023-09-08T20:21:56;95613.94;;;30.45;38.35
6851;BME280;3464;42.728;23.296;2023-09-08T20:24:23;95618.31;;;30.44;38.50
6851;BME280;3464;42.728;23.296;2023-09-08T20:26:52;95622.92;;;29.56;39.91
6851;BME280;3464;42.728;23.296;2023-09-08T20:29:20;95624.97;;;29.29;40.37
6851;BME280;3464;42.728;23.296;2023-09-08T20:32:15;95626.12;;;29.75;40.25
6851;BME280;3464;42.728;23.296;2023-09-08T20:44:01;95634.31;;;29.82;39.90
6851;BME280;3464;42.728;23.296;2023-09-08T20:46:56;95633.73;;;29.56;40.52
6851;BME280;3464;42.728;23.296;2023-09-08T20:50:08;95637.42;;;30.77;38.63
6851;BME280;3464;42.728;23.296;2023-09-08T20:53:03;95642.39;;;29.70;40.53
6851;BME280;3464;42.728;23.296;2023-09-08T20:55:42;95640.94;;;30.15;39.57
6851;BME280;3464;42.728;23.296;2023-09-08T21:11:16;95646.61;;;28.83;41.99
6851;BME280;3464;42.728;23.296;2023-09-08T21:19:53;95636.23;;;28.99;41.87
6851;BME280;3464;42.728;23.296;2023-09-08T21:35:31;95645.95;;;29.10;41.70
6851;BME280;3464;42.728;23.296;2023-09-08T21:41:07;95643.07;;;29.00;41.84
6851;BME280;3464;42.728;23.296;2023-09-08T21:43:37;95640.42;;;29.74;40.75
6851;BME280;3464;42.728;23.296;2023-09-08T21:46:06;95642.63;;;29.81;40.38
6851;BME280;3464;42.728;23.296;2023-09-08T21:48:35;95641.77;;;29.80;40.36
6851;BME280;3464;42.728;23.296;2023-09-08T21:51:03;95633.69;;;29.13;41.58
6851;BME280;3464;42.728;23.296;2023-09-08T21:56:54;95641.08;;;28.28;43.04
6851;BME280;3464;42.728;23.296;2023-09-08T22:14:43;95645.47;;;28.66;43.34
6851;BME280;3464;42.728;23.296;2023-09-08T22:20:03;95651.06;;;28.43;43.69
6851;BME280;3464;42.728;23.296;2023-09-08T22:26:15;95647.68;;;29.11;42.52
6851;BME280;3464;42.728;23.296;2023-09-08T22:35:23;95651.83;;;28.68;43.52
6851;BME280;3464;42.728;23.296;2023-09-08T22:37:49;95653.52;;;28.46;44.11
6851;BME280;3464;42.728;23.296;2023-09-08T22:40:16;95648.26;;;28.31;44.25
6851;BME280;3464;42.728;23.296;2023-09-08T22:42:44;95656.55;;;28.45;44.28
6851;BME280;3464;42.728;23.296;2023-09-08T22:45:10;95642.91;;;28.11;45.02
6851;BME280;3464;42.728;23.296;2023-09-08T22:47:37;95651.38;;;27.98;45.49
6851;BME280;3464;42.728;23.296;2023-09-08T22:50:06;95649.91;;;27.93;45.37
6851;BME280;3464;42.728;23.296;2023-09-08T22:52:35;95649.14;;;28.38;44.85
6851;BME280;3464;42.728;23.296;2023-09-08T22:55:02;95655.26;;;27.64;46.18
6851;BME280;3464;42.728;23.296;2023-09-08T22:57:30;95662.60;;;27.80;45.88
6851;BME280;3464;42.728;23.296;2023-09-08T22:59:58;95663.20;;;27.44;46.44
6851;BME280;3464;42.728;23.296;2023-09-08T23:02:24;95660.66;;;27.86;45.98
6851;BME280;3464;42.728;23.296;2023-09-08T23:04:52;95664.50;;;27.94;45.74
6851;BME280;3464;42.728;23.296;2023-09-08T23:07:19;95658.88;;;27.77;46.02
6851;BME280;3464;42.728;23.296;2023-09-08T23:09:47;95657.30;;;27.49;46.37
6851;BME280;3464;42.728;23.296;2023-09-08T23:12:14;95649.56;;;27.91;45.94
6851;BME280;3464;42.728;23.296;2023-09-08T23:14:41;95652.53;;;27.59;46.47
6851;BME280;3464;42.728;23.296;2023-09-08T23:17:07;95646.73;;;28.11;45.78
6851;BME280;3464;42.728;23.296;2023-09-08T23:19:34;95651.11;;;27.36;46.72
6851;BME280;3464;42.728;23.296;2023-09-08T23:22:00;95647.02;;;27.57;46.72
6851;BME280;3464;42.728;23.296;2023-09-08T23:24:27;95647.28;;;27.19;47.62
6851;BME280;3464;42.728;23.296;2023-09-08T23:26:54;95642.27;;;27.33;47.51
6851;BME280;3464;42.728;23.296;2023-09-08T23:29:22;95638.50;;;27.64;46.77
6851;BME280;3464;42.728;23.296;2023-09-08T23:31:50;95634.89;;;27.25;47.35
6851;BME280;3464;42.728;23.296;2023-09-08T23:34:17;95632.55;;;28.11;46.25
6851;BME280;3464;42.728;23.296;2023-09-08T23:36:43;95636.19;;;28.38;45.11
6851;BME280;3464;42.728;23.296;2023-09-08T23:39:10;95644.23;;;28.10;45.75
6851;BME280;3464;42.728;23.296;2023-09-08T23:41:38;95646.34;;;27.62;46.98
6851;BME280;3464;42.728;23.296;2023-09-08T23:44:06;95648.81;;;27.56;47.12
6851;BME280;3464;42.728;23.296;2023-09-08T23:46:33;95649.56;;;27.42;47.43
6851;BME280;3464;42.728;23.296;2023-09-08T23:49:00;95654.37;;;27.41;47.45
6851;BME280;3464;42.728;23.296;2023-09-08T23:51:28;95648.79;;;27.33;47.72
6851;BME280;3464;42.728;23.296;2023-09-08T23:53:54;95650.24;;;27.37;47.51
6851;BME280;3464;42.728;23.296;2023-09-08T23:56:22;95650.25;;;27.28;48.12
6851;BME280;3464;42.728;23.296;2023-09-08T23:58:48;95647.79;;;27.34;47.83
